FOE318 LROP-HEGN
Flight info
| Callsign | FOE318 |
|---|---|
| Flight time | 2h 43m |
| Altitude | 33000 |
| Route | IDARU DCT LUGEB DCT IVGOT T68 RIXEN UG1 IST UT35 BABSA/N0455F350 UT35 AYT UA16 TOMBI M855 RASDA A16 CVO L315 SOKOT SOKOT1A |
| Aircraft | A321/M-SDE3FGHIRWY/LB1 |
Departure
| Time | 2026-05-04 16:55 |
|---|---|
| Airport | Bucharest Henri Coandă International Airport (LROP) |
Arrival
| Time | 2026-05-04 19:38 |
|---|---|
| Airport | Hurghada International Airport (HEGN) |
| Time | Latitude | Longitude | Altitude | Speed | Heading |
|---|---|---|---|---|---|
| 2026-05-04 16:23 | 44.57259 | 26.08043 | 323 ft | 0 kts | 354° |
| 2026-05-04 16:40 | 44.57229 | 26.08043 | 334 ft | 4 kts | 13° |
| 2026-05-04 16:41 | 44.57197 | 26.08007 | 319 ft | 0 kts | 84° |
| 2026-05-04 16:46 | 44.57200 | 26.08053 | 321 ft | 6 kts | 84° |
| 2026-05-04 16:46 | 44.57210 | 26.08182 | 322 ft | 7 kts | 84° |
| 2026-05-04 16:47 | 44.57221 | 26.08337 | 322 ft | 9 kts | 84° |
| 2026-05-04 16:47 | 44.57224 | 26.08371 | 321 ft | 2 kts | 84° |
| 2026-05-04 16:48 | 44.57249 | 26.08486 | 322 ft | 5 kts | 30° |
| 2026-05-04 16:48 | 44.57285 | 26.08496 | 322 ft | 6 kts | 1° |
| 2026-05-04 16:49 | 44.57370 | 26.08485 | 322 ft | 7 kts | 354° |
| 2026-05-04 16:49 | 44.57472 | 26.08469 | 322 ft | 8 kts | 353° |
| 2026-05-04 16:50 | 44.57544 | 26.08458 | 322 ft | 0 kts | 355° |
| 2026-05-04 16:50 | 44.57569 | 26.08455 | 322 ft | 4 kts | 355° |
| 2026-05-04 16:51 | 44.57642 | 26.08458 | 323 ft | 2 kts | 27° |
| 2026-05-04 16:51 | 44.57650 | 26.08468 | 323 ft | 1 kts | 47° |
| 2026-05-04 16:51 | 44.57653 | 26.08475 | 323 ft | 1 kts | 53° |
| 2026-05-04 16:52 | 44.57662 | 26.08494 | 322 ft | 2 kts | 58° |
| 2026-05-04 16:52 | 44.57666 | 26.08511 | 323 ft | 2 kts | 78° |
| 2026-05-04 16:53 | 44.57675 | 26.08595 | 323 ft | 8 kts | 82° |
| 2026-05-04 16:53 | 44.57845 | 26.10966 | 322 ft | 164 kts | 85° |
| 2026-05-04 16:54 | 44.57964 | 26.12707 | 419 ft | 194 kts | 84° |
| 2026-05-04 16:55 | 44.58522 | 26.19683 | 3241 ft | 170 kts | 81° |
| 2026-05-04 16:55 | 44.58900 | 26.23232 | 3939 ft | 193 kts | 78° |
| 2026-05-04 16:56 | 44.59040 | 26.27036 | 5033 ft | 197 kts | 89° |
| 2026-05-04 16:56 | 44.57951 | 26.33011 | 5863 ft | 246 kts | 115° |
| 2026-05-04 16:57 | 44.57108 | 26.35215 | 6062 ft | 268 kts | 115° |
| 2026-05-04 16:57 | 44.55299 | 26.39922 | 7266 ft | 278 kts | 114° |
| 2026-05-04 16:58 | 44.52550 | 26.47177 | 9440 ft | 281 kts | 112° |
| 2026-05-04 16:58 | 44.51651 | 26.49568 | 10142 ft | 282 kts | 112° |
| 2026-05-04 16:59 | 44.49708 | 26.54782 | 10560 ft | 320 kts | 112° |
| 2026-05-04 17:00 | 44.45189 | 26.66742 | 12123 ft | 359 kts | 114° |
| 2026-05-04 17:00 | 44.41641 | 26.76068 | 13945 ft | 367 kts | 114° |
| 2026-05-04 17:01 | 44.39232 | 26.82417 | 15016 ft | 372 kts | 114° |
| 2026-05-04 17:01 | 44.36781 | 26.88862 | 16116 ft | 377 kts | 114° |
| 2026-05-04 17:02 | 44.34299 | 26.95374 | 17205 ft | 383 kts | 115° |
| 2026-05-04 17:02 | 44.31785 | 27.01950 | 18296 ft | 388 kts | 115° |
| 2026-05-04 17:03 | 44.30504 | 27.05296 | 18748 ft | 390 kts | 115° |
| 2026-05-04 17:03 | 44.29240 | 27.08599 | 19220 ft | 393 kts | 115° |
| 2026-05-04 17:03 | 44.26646 | 27.15360 | 20122 ft | 397 kts | 115° |
| 2026-05-04 17:04 | 44.24013 | 27.22189 | 20993 ft | 402 kts | 115° |
| 2026-05-04 17:04 | 44.21342 | 27.29111 | 21819 ft | 408 kts | 115° |
| 2026-05-04 17:05 | 44.19073 | 27.34970 | 22492 ft | 412 kts | 116° |
| 2026-05-04 17:05 | 44.16329 | 27.42045 | 23244 ft | 418 kts | 116° |
| 2026-05-04 17:06 | 44.13657 | 27.48924 | 23897 ft | 423 kts | 116° |
| 2026-05-04 17:06 | 44.12279 | 27.52464 | 24176 ft | 426 kts | 117° |
| 2026-05-04 17:07 | 44.09513 | 27.59567 | 24788 ft | 431 kts | 117° |
| 2026-05-04 17:07 | 44.08551 | 27.62029 | 24996 ft | 432 kts | 117° |
| 2026-05-04 17:07 | 44.06690 | 27.66784 | 25394 ft | 435 kts | 117° |
| 2026-05-04 17:07 | 44.05269 | 27.70405 | 25669 ft | 438 kts | 118° |
| 2026-05-04 17:08 | 44.03854 | 27.74009 | 25954 ft | 440 kts | 118° |
| 2026-05-04 17:08 | 44.00963 | 27.81349 | 26502 ft | 444 kts | 118° |
| 2026-05-04 17:08 | 43.99522 | 27.85006 | 26783 ft | 445 kts | 118° |
| 2026-05-04 17:09 | 43.98029 | 27.88791 | 27071 ft | 447 kts | 118° |
| 2026-05-04 17:09 | 43.96531 | 27.92579 | 27362 ft | 449 kts | 119° |
| 2026-05-04 17:09 | 43.95017 | 27.96397 | 27640 ft | 451 kts | 119° |
| 2026-05-04 17:10 | 43.91983 | 28.04056 | 28258 ft | 453 kts | 119° |
| 2026-05-04 17:10 | 43.87449 | 28.15466 | 29536 ft | 449 kts | 120° |
| 2026-05-04 17:11 | 43.85941 | 28.19248 | 29957 ft | 447 kts | 120° |
| 2026-05-04 17:11 | 43.84435 | 28.23017 | 30340 ft | 445 kts | 120° |
| 2026-05-04 17:11 | 43.81609 | 28.30081 | 30923 ft | 443 kts | 120° |
| 2026-05-04 17:12 | 43.80100 | 28.33849 | 31243 ft | 443 kts | 120° |
| 2026-05-04 17:12 | 43.76641 | 28.40748 | 31759 ft | 439 kts | 139° |
| 2026-05-04 17:13 | 43.68351 | 28.45076 | 32472 ft | 440 kts | 171° |
| 2026-05-04 17:14 | 43.59531 | 28.46814 | 33042 ft | 441 kts | 171° |
| 2026-05-04 17:14 | 43.56509 | 28.47422 | 33061 ft | 441 kts | 171° |
| 2026-05-04 17:15 | 43.47428 | 28.49261 | 33060 ft | 440 kts | 171° |
| 2026-05-04 17:16 | 43.35420 | 28.51671 | 33055 ft | 439 kts | 171° |
| 2026-05-04 17:17 | 43.23340 | 28.54089 | 33055 ft | 438 kts | 170° |
| 2026-05-04 17:18 | 43.11375 | 28.56464 | 33053 ft | 437 kts | 170° |
| 2026-05-04 17:19 | 42.99329 | 28.58853 | 33054 ft | 437 kts | 170° |
| 2026-05-04 17:20 | 42.87451 | 28.61205 | 33050 ft | 437 kts | 170° |
| 2026-05-04 17:20 | 42.78428 | 28.62970 | 33043 ft | 437 kts | 170° |
| 2026-05-04 17:21 | 42.66380 | 28.65333 | 33062 ft | 438 kts | 169° |
| 2026-05-04 17:22 | 42.60356 | 28.66514 | 33041 ft | 438 kts | 169° |
| 2026-05-04 17:23 | 42.48281 | 28.68872 | 33054 ft | 439 kts | 169° |
| 2026-05-04 17:24 | 42.39195 | 28.70637 | 33050 ft | 440 kts | 169° |
| 2026-05-04 17:25 | 42.27286 | 28.72942 | 33047 ft | 441 kts | 169° |
| 2026-05-04 17:26 | 42.15084 | 28.75293 | 33045 ft | 443 kts | 169° |
| 2026-05-04 17:27 | 41.99682 | 28.76943 | 33044 ft | 447 kts | 175° |
| 2026-05-04 17:28 | 41.87341 | 28.77425 | 33045 ft | 450 kts | 175° |
| 2026-05-04 17:29 | 41.68638 | 28.78155 | 33040 ft | 454 kts | 175° |
| 2026-05-04 17:31 | 41.52906 | 28.78778 | 33053 ft | 456 kts | 175° |
| 2026-05-04 17:31 | 41.43788 | 28.79462 | 33050 ft | 452 kts | 162° |
| 2026-05-04 17:32 | 41.37772 | 28.82013 | 33048 ft | 451 kts | 159° |
| 2026-05-04 17:33 | 41.26069 | 28.87066 | 33050 ft | 452 kts | 159° |
| 2026-05-04 17:34 | 41.14040 | 28.92230 | 33065 ft | 460 kts | 157° |
| 2026-05-04 17:35 | 41.04907 | 28.96161 | 33055 ft | 475 kts | 158° |
| 2026-05-04 17:35 | 40.98644 | 28.98832 | 33060 ft | 477 kts | 158° |
| 2026-05-04 17:36 | 40.92352 | 29.01503 | 33055 ft | 478 kts | 158° |
| 2026-05-04 17:36 | 40.85976 | 29.04219 | 33058 ft | 479 kts | 158° |
| 2026-05-04 17:37 | 40.79648 | 29.06916 | 33058 ft | 480 kts | 158° |
| 2026-05-04 17:37 | 40.73266 | 29.09626 | 33058 ft | 481 kts | 158° |
| 2026-05-04 17:38 | 40.66910 | 29.12320 | 33057 ft | 482 kts | 158° |
| 2026-05-04 17:38 | 40.61599 | 29.14566 | 33055 ft | 482 kts | 158° |
| 2026-05-04 17:39 | 40.51136 | 29.18967 | 33062 ft | 483 kts | 158° |
| 2026-05-04 17:39 | 40.44721 | 29.21663 | 33062 ft | 484 kts | 158° |
| 2026-05-04 17:40 | 40.38329 | 29.24336 | 33060 ft | 485 kts | 158° |
| 2026-05-04 17:40 | 40.31873 | 29.27040 | 33047 ft | 486 kts | 158° |
| 2026-05-04 17:41 | 40.25502 | 29.29706 | 33047 ft | 487 kts | 158° |
| 2026-05-04 17:41 | 40.19034 | 29.32401 | 33063 ft | 487 kts | 158° |
| 2026-05-04 17:42 | 40.12574 | 29.35093 | 33065 ft | 487 kts | 158° |
| 2026-05-04 17:42 | 40.06108 | 29.37778 | 33062 ft | 487 kts | 158° |
| 2026-05-04 17:43 | 39.99655 | 29.40458 | 33062 ft | 487 kts | 158° |
| 2026-05-04 17:43 | 39.93185 | 29.43138 | 33068 ft | 487 kts | 158° |
| 2026-05-04 17:44 | 39.86730 | 29.45801 | 33070 ft | 488 kts | 158° |
| 2026-05-04 17:44 | 39.80303 | 29.48450 | 33065 ft | 488 kts | 158° |
| 2026-05-04 17:45 | 39.73778 | 29.51129 | 33062 ft | 488 kts | 158° |
| 2026-05-04 17:45 | 39.67301 | 29.53785 | 33062 ft | 488 kts | 159° |
| 2026-05-04 17:46 | 39.61924 | 29.55982 | 33060 ft | 488 kts | 159° |
| 2026-05-04 17:46 | 39.55446 | 29.58636 | 33058 ft | 487 kts | 159° |
| 2026-05-04 17:47 | 39.48992 | 29.61266 | 33056 ft | 487 kts | 159° |
| 2026-05-04 17:47 | 39.42514 | 29.63909 | 33058 ft | 487 kts | 159° |
| 2026-05-04 17:48 | 39.36060 | 29.66547 | 33057 ft | 487 kts | 159° |
| 2026-05-04 17:48 | 39.29594 | 29.69166 | 33054 ft | 487 kts | 159° |
| 2026-05-04 17:49 | 39.23140 | 29.71775 | 33054 ft | 487 kts | 159° |
| 2026-05-04 17:49 | 39.16670 | 29.74393 | 33056 ft | 487 kts | 160° |
| 2026-05-04 17:50 | 39.10200 | 29.76998 | 33054 ft | 488 kts | 160° |
| 2026-05-04 17:50 | 39.03722 | 29.79601 | 33050 ft | 488 kts | 160° |
| 2026-05-04 17:51 | 38.97234 | 29.82209 | 33048 ft | 489 kts | 160° |
| 2026-05-04 17:51 | 38.90737 | 29.84818 | 33044 ft | 488 kts | 160° |
| 2026-05-04 17:52 | 38.84276 | 29.87406 | 33044 ft | 487 kts | 160° |
| 2026-05-04 17:52 | 38.77807 | 29.89999 | 33046 ft | 487 kts | 161° |
| 2026-05-04 17:53 | 38.71318 | 29.92583 | 33044 ft | 487 kts | 161° |
| 2026-05-04 17:53 | 38.64844 | 29.95147 | 33043 ft | 487 kts | 161° |
| 2026-05-04 17:54 | 38.58371 | 29.97726 | 33042 ft | 487 kts | 161° |
| 2026-05-04 17:54 | 38.51827 | 30.00033 | 33036 ft | 488 kts | 166° |
| 2026-05-04 17:55 | 38.45191 | 30.01856 | 33034 ft | 488 kts | 167° |
| 2026-05-04 17:55 | 38.38541 | 30.03579 | 33031 ft | 489 kts | 168° |
| 2026-05-04 17:56 | 38.31880 | 30.05328 | 33034 ft | 488 kts | 167° |
| 2026-05-04 17:56 | 38.25230 | 30.07121 | 33029 ft | 489 kts | 167° |
| 2026-05-04 17:57 | 38.18573 | 30.08933 | 33027 ft | 489 kts | 167° |
| 2026-05-04 17:57 | 38.11914 | 30.10724 | 33022 ft | 489 kts | 168° |
| 2026-05-04 17:58 | 38.05260 | 30.12504 | 33028 ft | 489 kts | 168° |
| 2026-05-04 17:58 | 37.98600 | 30.14278 | 33028 ft | 489 kts | 168° |
| 2026-05-04 17:59 | 37.91949 | 30.16050 | 33032 ft | 489 kts | 168° |
| 2026-05-04 18:00 | 37.81976 | 30.18706 | 33037 ft | 488 kts | 168° |
| 2026-05-04 18:00 | 37.75341 | 30.20471 | 33038 ft | 487 kts | 168° |
| 2026-05-04 18:01 | 37.68702 | 30.22232 | 33038 ft | 487 kts | 168° |
| 2026-05-04 18:01 | 37.62176 | 30.23957 | 33031 ft | 486 kts | 169° |
| 2026-05-04 18:02 | 37.52246 | 30.26575 | 33020 ft | 486 kts | 169° |
| 2026-05-04 18:02 | 37.45630 | 30.28316 | 33016 ft | 486 kts | 169° |
| 2026-05-04 18:03 | 37.39012 | 30.30054 | 33017 ft | 486 kts | 169° |
| 2026-05-04 18:03 | 37.32398 | 30.31793 | 33007 ft | 486 kts | 169° |
| 2026-05-04 18:04 | 37.25767 | 30.33520 | 33006 ft | 486 kts | 169° |
| 2026-05-04 18:05 | 37.15827 | 30.36118 | 33005 ft | 486 kts | 169° |
| 2026-05-04 18:05 | 37.09247 | 30.37842 | 33001 ft | 486 kts | 169° |
| 2026-05-04 18:06 | 36.99320 | 30.40424 | 32991 ft | 486 kts | 169° |
| 2026-05-04 18:06 | 36.92657 | 30.42146 | 32985 ft | 485 kts | 169° |
| 2026-05-04 18:07 | 36.86090 | 30.43851 | 32986 ft | 485 kts | 169° |
| 2026-05-04 18:07 | 36.79491 | 30.45564 | 32979 ft | 485 kts | 169° |
| 2026-05-04 18:08 | 36.72837 | 30.47283 | 32970 ft | 484 kts | 169° |
| 2026-05-04 18:08 | 36.66253 | 30.48977 | 32966 ft | 484 kts | 169° |
| 2026-05-04 18:09 | 36.53143 | 30.52344 | 32955 ft | 481 kts | 170° |
| 2026-05-04 18:10 | 36.46556 | 30.54037 | 32945 ft | 480 kts | 170° |
| 2026-05-04 18:10 | 36.40056 | 30.55704 | 32940 ft | 479 kts | 170° |
| 2026-05-04 18:11 | 36.33536 | 30.57370 | 32934 ft | 478 kts | 170° |
| 2026-05-04 18:11 | 36.26988 | 30.59038 | 32952 ft | 476 kts | 170° |
| 2026-05-04 18:12 | 36.20564 | 30.60669 | 32943 ft | 475 kts | 170° |
| 2026-05-04 18:12 | 36.14090 | 30.62311 | 32940 ft | 473 kts | 170° |
| 2026-05-04 18:13 | 36.07657 | 30.63936 | 32935 ft | 472 kts | 170° |
| 2026-05-04 18:14 | 35.98013 | 30.66389 | 32935 ft | 471 kts | 170° |
| 2026-05-04 18:14 | 35.91599 | 30.68010 | 32931 ft | 470 kts | 171° |
| 2026-05-04 18:15 | 35.78791 | 30.71239 | 32925 ft | 470 kts | 171° |
| 2026-05-04 18:16 | 35.72387 | 30.72839 | 32922 ft | 470 kts | 171° |
| 2026-05-04 18:16 | 35.65976 | 30.74449 | 32923 ft | 470 kts | 171° |
| 2026-05-04 18:17 | 35.56378 | 30.76867 | 32922 ft | 470 kts | 171° |
| 2026-05-04 18:18 | 35.46764 | 30.79263 | 32917 ft | 470 kts | 172° |
| 2026-05-04 18:18 | 35.40368 | 30.80858 | 32919 ft | 470 kts | 172° |
| 2026-05-04 18:19 | 35.30742 | 30.83250 | 32918 ft | 470 kts | 172° |
| 2026-05-04 18:19 | 35.24358 | 30.84838 | 32922 ft | 470 kts | 172° |
| 2026-05-04 18:20 | 35.17942 | 30.86352 | 32916 ft | 467 kts | 177° |
| 2026-05-04 18:20 | 35.11480 | 30.86688 | 32921 ft | 464 kts | 183° |
| 2026-05-04 18:21 | 35.05031 | 30.86893 | 32931 ft | 464 kts | 183° |
| 2026-05-04 18:21 | 34.98576 | 30.87109 | 32936 ft | 463 kts | 183° |
| 2026-05-04 18:22 | 34.92175 | 30.87330 | 32942 ft | 463 kts | 183° |
| 2026-05-04 18:22 | 34.85739 | 30.87548 | 32943 ft | 462 kts | 184° |
| 2026-05-04 18:23 | 34.79314 | 30.87754 | 32949 ft | 462 kts | 184° |
| 2026-05-04 18:23 | 34.72901 | 30.88618 | 32950 ft | 473 kts | 167° |
| 2026-05-04 18:24 | 34.66655 | 30.91188 | 32941 ft | 475 kts | 166° |
| 2026-05-04 18:24 | 34.60413 | 30.93834 | 32942 ft | 475 kts | 166° |
| 2026-05-04 18:25 | 34.54167 | 30.96475 | 32941 ft | 476 kts | 167° |
| 2026-05-04 18:25 | 34.47910 | 30.99084 | 32942 ft | 476 kts | 167° |
| 2026-05-04 18:26 | 34.41638 | 31.01683 | 32945 ft | 476 kts | 167° |
| 2026-05-04 18:26 | 34.35375 | 31.04283 | 32950 ft | 477 kts | 167° |
| 2026-05-04 18:27 | 34.29095 | 31.06898 | 32954 ft | 477 kts | 168° |
| 2026-05-04 18:27 | 34.22814 | 31.09508 | 32954 ft | 477 kts | 168° |
| 2026-05-04 18:28 | 34.16517 | 31.12113 | 32972 ft | 478 kts | 168° |
| 2026-05-04 18:28 | 34.10243 | 31.14698 | 32965 ft | 478 kts | 168° |
| 2026-05-04 18:29 | 34.05003 | 31.16857 | 32967 ft | 478 kts | 168° |
| 2026-05-04 18:29 | 33.98718 | 31.19450 | 32966 ft | 478 kts | 169° |
| 2026-05-04 18:30 | 33.89270 | 31.23340 | 32970 ft | 478 kts | 169° |
| 2026-05-04 18:31 | 33.82983 | 31.25919 | 32976 ft | 478 kts | 169° |
| 2026-05-04 18:31 | 33.76692 | 31.28503 | 32979 ft | 478 kts | 169° |
| 2026-05-04 18:32 | 33.70394 | 31.31072 | 32984 ft | 477 kts | 169° |
| 2026-05-04 18:32 | 33.64098 | 31.33640 | 32992 ft | 477 kts | 169° |
| 2026-05-04 18:33 | 33.57815 | 31.36207 | 32995 ft | 477 kts | 170° |
| 2026-05-04 18:33 | 33.51529 | 31.38774 | 33005 ft | 477 kts | 170° |
| 2026-05-04 18:34 | 33.45254 | 31.41330 | 33009 ft | 476 kts | 170° |
| 2026-05-04 18:34 | 33.38990 | 31.43869 | 33009 ft | 475 kts | 170° |
| 2026-05-04 18:35 | 33.32738 | 31.46401 | 33026 ft | 475 kts | 170° |
| 2026-05-04 18:35 | 33.26469 | 31.48938 | 33023 ft | 474 kts | 170° |
| 2026-05-04 18:36 | 33.20223 | 31.51464 | 33020 ft | 474 kts | 170° |
| 2026-05-04 18:36 | 33.13981 | 31.53984 | 33027 ft | 473 kts | 170° |
| 2026-05-04 18:37 | 33.07739 | 31.56502 | 33023 ft | 473 kts | 170° |
| 2026-05-04 18:37 | 33.01514 | 31.59019 | 33037 ft | 473 kts | 170° |
| 2026-05-04 18:38 | 32.95287 | 31.61525 | 33025 ft | 472 kts | 171° |
| 2026-05-04 18:38 | 32.89101 | 31.64005 | 33035 ft | 472 kts | 171° |
| 2026-05-04 18:39 | 32.82881 | 31.66491 | 33046 ft | 472 kts | 171° |
| 2026-05-04 18:39 | 32.76662 | 31.68970 | 33043 ft | 471 kts | 171° |
| 2026-05-04 18:40 | 32.70445 | 31.71459 | 33047 ft | 471 kts | 171° |
| 2026-05-04 18:40 | 32.64232 | 31.73944 | 33050 ft | 471 kts | 171° |
| 2026-05-04 18:41 | 32.58025 | 31.76412 | 33053 ft | 470 kts | 171° |
| 2026-05-04 18:41 | 32.51826 | 31.78876 | 33055 ft | 470 kts | 171° |
| 2026-05-04 18:42 | 32.45640 | 31.81343 | 33058 ft | 470 kts | 171° |
| 2026-05-04 18:42 | 32.39436 | 31.83804 | 33059 ft | 469 kts | 171° |
| 2026-05-04 18:43 | 32.33247 | 31.86254 | 33065 ft | 469 kts | 171° |
| 2026-05-04 18:43 | 32.27057 | 31.88694 | 33069 ft | 469 kts | 171° |
| 2026-05-04 18:44 | 32.20864 | 31.91136 | 33072 ft | 469 kts | 171° |
| 2026-05-04 18:44 | 32.14679 | 31.93574 | 33069 ft | 469 kts | 171° |
| 2026-05-04 18:45 | 32.08486 | 31.96015 | 33069 ft | 469 kts | 170° |
| 2026-05-04 18:45 | 32.02304 | 31.98450 | 33068 ft | 469 kts | 170° |
| 2026-05-04 18:46 | 31.96104 | 32.00882 | 33069 ft | 469 kts | 170° |
| 2026-05-04 18:46 | 31.89919 | 32.03309 | 33088 ft | 469 kts | 170° |
| 2026-05-04 18:47 | 31.83731 | 32.05729 | 33088 ft | 468 kts | 170° |
| 2026-05-04 18:47 | 31.77589 | 32.08127 | 33083 ft | 468 kts | 170° |
| 2026-05-04 18:48 | 31.71407 | 32.10539 | 33093 ft | 468 kts | 170° |
| 2026-05-04 18:48 | 31.65184 | 32.12960 | 33090 ft | 467 kts | 169° |
| 2026-05-04 18:49 | 31.59106 | 32.15325 | 33089 ft | 466 kts | 169° |
| 2026-05-04 18:49 | 31.52895 | 32.17746 | 33095 ft | 466 kts | 169° |
| 2026-05-04 18:50 | 31.46768 | 32.20125 | 33089 ft | 465 kts | 169° |
| 2026-05-04 18:50 | 31.40626 | 32.22503 | 33087 ft | 465 kts | 169° |
| 2026-05-04 18:51 | 31.34477 | 32.24888 | 33089 ft | 465 kts | 169° |
| 2026-05-04 18:51 | 31.28286 | 32.27287 | 33092 ft | 465 kts | 169° |
| 2026-05-04 18:52 | 31.22174 | 32.29643 | 33095 ft | 465 kts | 169° |
| 2026-05-04 18:52 | 31.16031 | 32.32011 | 33090 ft | 465 kts | 169° |
| 2026-05-04 18:53 | 31.09895 | 32.34374 | 33090 ft | 465 kts | 169° |
| 2026-05-04 18:53 | 31.03736 | 32.36739 | 33087 ft | 465 kts | 169° |
| 2026-05-04 18:54 | 30.97591 | 32.39091 | 33090 ft | 465 kts | 170° |
| 2026-05-04 18:54 | 30.91437 | 32.41445 | 33084 ft | 465 kts | 170° |
| 2026-05-04 18:55 | 30.85295 | 32.43802 | 33090 ft | 465 kts | 170° |
| 2026-05-04 18:55 | 30.76092 | 32.47326 | 33094 ft | 464 kts | 170° |
| 2026-05-04 18:56 | 30.69951 | 32.49669 | 33094 ft | 464 kts | 171° |
| 2026-05-04 18:56 | 30.63827 | 32.52005 | 33096 ft | 464 kts | 171° |
| 2026-05-04 18:57 | 30.57700 | 32.54329 | 33097 ft | 463 kts | 171° |
| 2026-05-04 18:57 | 30.51562 | 32.56659 | 33097 ft | 463 kts | 171° |
| 2026-05-04 18:58 | 30.45446 | 32.58992 | 33101 ft | 463 kts | 171° |
| 2026-05-04 18:58 | 30.39317 | 32.61318 | 33099 ft | 463 kts | 171° |
| 2026-05-04 18:59 | 30.33197 | 32.63628 | 33095 ft | 463 kts | 171° |
| 2026-05-04 18:59 | 30.27074 | 32.65948 | 33097 ft | 462 kts | 171° |
| 2026-05-04 19:00 | 30.20960 | 32.68259 | 33094 ft | 462 kts | 172° |
| 2026-05-04 19:00 | 30.14852 | 32.70561 | 33102 ft | 462 kts | 172° |
| 2026-05-04 19:01 | 30.08736 | 32.72860 | 33094 ft | 462 kts | 172° |
| 2026-05-04 19:01 | 30.02674 | 32.75138 | 33094 ft | 462 kts | 172° |
| 2026-05-04 19:02 | 29.96580 | 32.77433 | 33084 ft | 462 kts | 172° |
| 2026-05-04 19:02 | 29.90468 | 32.79723 | 33082 ft | 462 kts | 172° |
| 2026-05-04 19:03 | 29.84353 | 32.82014 | 33081 ft | 462 kts | 172° |
| 2026-05-04 19:03 | 29.78248 | 32.84301 | 33072 ft | 462 kts | 172° |
| 2026-05-04 19:04 | 29.72097 | 32.86594 | 33074 ft | 462 kts | 172° |
| 2026-05-04 19:04 | 29.65980 | 32.88881 | 33072 ft | 462 kts | 172° |
| 2026-05-04 19:05 | 29.59909 | 32.91142 | 33074 ft | 462 kts | 172° |
| 2026-05-04 19:05 | 29.53798 | 32.93417 | 33080 ft | 462 kts | 172° |
| 2026-05-04 19:06 | 29.47691 | 32.95689 | 33073 ft | 461 kts | 172° |
| 2026-05-04 19:06 | 29.41579 | 32.97961 | 33069 ft | 461 kts | 172° |
| 2026-05-04 19:07 | 29.35472 | 33.00226 | 33061 ft | 461 kts | 172° |
| 2026-05-04 19:07 | 29.29361 | 33.02488 | 33063 ft | 461 kts | 172° |
| 2026-05-04 19:08 | 29.23365 | 33.04710 | 33055 ft | 461 kts | 172° |
| 2026-05-04 19:08 | 29.17257 | 33.06966 | 33064 ft | 461 kts | 172° |
| 2026-05-04 19:09 | 29.11148 | 33.09221 | 33064 ft | 460 kts | 172° |
| 2026-05-04 19:09 | 29.05061 | 33.11456 | 33060 ft | 460 kts | 172° |
| 2026-05-04 19:10 | 28.98998 | 33.13678 | 33061 ft | 460 kts | 172° |
| 2026-05-04 19:10 | 28.92902 | 33.15925 | 33058 ft | 460 kts | 172° |
| 2026-05-04 19:11 | 28.86815 | 33.18166 | 33056 ft | 460 kts | 172° |
| 2026-05-04 19:11 | 28.80716 | 33.20403 | 33047 ft | 460 kts | 172° |
| 2026-05-04 19:12 | 28.71717 | 33.23705 | 32519 ft | 459 kts | 171° |
| 2026-05-04 19:12 | 28.68672 | 33.24820 | 31777 ft | 461 kts | 171° |
| 2026-05-04 19:13 | 28.65604 | 33.25939 | 30990 ft | 465 kts | 171° |
| 2026-05-04 19:13 | 28.62502 | 33.27068 | 30199 ft | 469 kts | 171° |
| 2026-05-04 19:13 | 28.60441 | 33.27818 | 29613 ft | 472 kts | 171° |
| 2026-05-04 19:13 | 28.56312 | 33.29328 | 28818 ft | 467 kts | 171° |
| 2026-05-04 19:14 | 28.54229 | 33.30094 | 28429 ft | 465 kts | 171° |
| 2026-05-04 19:14 | 28.51175 | 33.31216 | 27859 ft | 460 kts | 170° |
| 2026-05-04 19:14 | 28.48129 | 33.32330 | 27283 ft | 456 kts | 171° |
| 2026-05-04 19:14 | 28.45135 | 33.33423 | 26762 ft | 452 kts | 171° |
| 2026-05-04 19:15 | 28.42152 | 33.34508 | 26221 ft | 448 kts | 171° |
| 2026-05-04 19:15 | 28.39238 | 33.35564 | 25700 ft | 444 kts | 170° |
| 2026-05-04 19:15 | 28.35275 | 33.36996 | 24990 ft | 439 kts | 170° |
| 2026-05-04 19:15 | 28.33367 | 33.37686 | 24648 ft | 436 kts | 170° |
| 2026-05-04 19:16 | 28.30489 | 33.38728 | 24142 ft | 433 kts | 170° |
| 2026-05-04 19:16 | 28.27621 | 33.39766 | 23644 ft | 429 kts | 170° |
| 2026-05-04 19:16 | 28.24789 | 33.40793 | 23120 ft | 426 kts | 170° |
| 2026-05-04 19:16 | 28.21966 | 33.41820 | 22947 ft | 426 kts | 170° |
| 2026-05-04 19:17 | 28.19160 | 33.42838 | 22997 ft | 427 kts | 170° |
| 2026-05-04 19:17 | 28.16312 | 33.43867 | 22989 ft | 427 kts | 170° |
| 2026-05-04 19:17 | 28.13480 | 33.44884 | 22989 ft | 427 kts | 170° |
| 2026-05-04 19:17 | 28.10655 | 33.45902 | 22995 ft | 427 kts | 170° |
| 2026-05-04 19:18 | 28.07823 | 33.46925 | 22993 ft | 427 kts | 170° |
| 2026-05-04 19:18 | 28.04986 | 33.47952 | 22991 ft | 427 kts | 170° |
| 2026-05-04 19:18 | 28.02158 | 33.48975 | 22996 ft | 427 kts | 170° |
| 2026-05-04 19:18 | 27.99369 | 33.49985 | 22999 ft | 427 kts | 170° |
| 2026-05-04 19:19 | 27.96542 | 33.51007 | 23004 ft | 426 kts | 170° |
| 2026-05-04 19:19 | 27.93712 | 33.52026 | 23001 ft | 426 kts | 169° |
| 2026-05-04 19:19 | 27.90889 | 33.53039 | 23003 ft | 426 kts | 170° |
| 2026-05-04 19:19 | 27.88061 | 33.54051 | 23012 ft | 426 kts | 170° |
| 2026-05-04 19:20 | 27.85241 | 33.55062 | 23013 ft | 426 kts | 170° |
| 2026-05-04 19:20 | 27.82418 | 33.56077 | 23012 ft | 426 kts | 169° |
| 2026-05-04 19:20 | 27.79590 | 33.57098 | 23029 ft | 426 kts | 169° |
| 2026-05-04 19:20 | 27.76858 | 33.58082 | 23009 ft | 426 kts | 169° |
| 2026-05-04 19:21 | 27.74044 | 33.59094 | 22661 ft | 421 kts | 169° |
| 2026-05-04 19:21 | 27.71269 | 33.60092 | 21865 ft | 417 kts | 169° |
| 2026-05-04 19:21 | 27.68566 | 33.61062 | 21113 ft | 413 kts | 169° |
| 2026-05-04 19:21 | 27.65808 | 33.62052 | 20386 ft | 409 kts | 169° |
| 2026-05-04 19:22 | 27.63116 | 33.63017 | 19664 ft | 405 kts | 169° |
| 2026-05-04 19:22 | 27.60445 | 33.63975 | 18955 ft | 401 kts | 169° |
| 2026-05-04 19:22 | 27.57878 | 33.64897 | 18278 ft | 397 kts | 169° |
| 2026-05-04 19:22 | 27.55257 | 33.65838 | 17489 ft | 393 kts | 169° |
| 2026-05-04 19:23 | 27.52658 | 33.66767 | 16731 ft | 389 kts | 169° |
| 2026-05-04 19:23 | 27.50098 | 33.67681 | 15990 ft | 384 kts | 168° |
| 2026-05-04 19:23 | 27.47622 | 33.68569 | 15813 ft | 363 kts | 169° |
| 2026-05-04 19:23 | 27.45275 | 33.69420 | 15682 ft | 343 kts | 169° |
| 2026-05-04 19:24 | 27.43059 | 33.70221 | 15406 ft | 330 kts | 169° |
| 2026-05-04 19:24 | 27.40887 | 33.70993 | 14932 ft | 324 kts | 169° |
| 2026-05-04 19:24 | 27.38742 | 33.71745 | 14418 ft | 321 kts | 169° |
| 2026-05-04 19:24 | 27.36641 | 33.72481 | 14076 ft | 316 kts | 169° |
| 2026-05-04 19:25 | 27.34528 | 33.73227 | 13511 ft | 316 kts | 169° |
| 2026-05-04 19:25 | 27.32504 | 33.73942 | 12949 ft | 314 kts | 169° |
| 2026-05-04 19:25 | 27.30424 | 33.74678 | 12388 ft | 312 kts | 168° |
| 2026-05-04 19:25 | 27.28360 | 33.75411 | 11843 ft | 310 kts | 168° |
| 2026-05-04 19:26 | 27.26320 | 33.76138 | 11319 ft | 308 kts | 168° |
| 2026-05-04 19:26 | 27.24278 | 33.76868 | 10790 ft | 306 kts | 168° |
| 2026-05-04 19:26 | 27.22259 | 33.77589 | 10300 ft | 304 kts | 167° |
| 2026-05-04 19:26 | 27.20314 | 33.78286 | 9617 ft | 300 kts | 167° |
| 2026-05-04 19:27 | 27.18336 | 33.78991 | 8828 ft | 297 kts | 167° |
| 2026-05-04 19:27 | 27.16370 | 33.79689 | 8035 ft | 295 kts | 166° |
| 2026-05-04 19:27 | 27.14413 | 33.80381 | 7312 ft | 292 kts | 166° |
| 2026-05-04 19:27 | 27.12497 | 33.81058 | 7035 ft | 294 kts | 166° |
| 2026-05-04 19:28 | 27.10533 | 33.81748 | 6693 ft | 293 kts | 166° |
| 2026-05-04 19:28 | 27.08595 | 33.82432 | 6500 ft | 286 kts | 165° |
| 2026-05-04 19:28 | 27.06735 | 33.83092 | 6369 ft | 277 kts | 166° |
| 2026-05-04 19:28 | 27.04971 | 33.83728 | 6239 ft | 269 kts | 163° |
| 2026-05-04 19:29 | 27.03346 | 33.84716 | 5992 ft | 267 kts | 142° |
| 2026-05-04 19:29 | 27.02097 | 33.86233 | 5677 ft | 266 kts | 121° |
| 2026-05-04 19:29 | 27.01369 | 33.88090 | 5363 ft | 262 kts | 101° |
| 2026-05-04 19:29 | 27.00968 | 33.90074 | 5042 ft | 260 kts | 101° |
| 2026-05-04 19:30 | 27.00512 | 33.92053 | 4988 ft | 261 kts | 102° |
| 2026-05-04 19:30 | 26.99863 | 33.93929 | 4987 ft | 264 kts | 122° |
| 2026-05-04 19:30 | 26.98570 | 33.95377 | 4990 ft | 265 kts | 150° |
| 2026-05-04 19:30 | 26.96861 | 33.96043 | 4993 ft | 260 kts | 179° |
| 2026-05-04 19:31 | 26.95100 | 33.95829 | 4994 ft | 251 kts | 205° |
| 2026-05-04 19:31 | 26.93637 | 33.94862 | 4984 ft | 243 kts | 229° |
| 2026-05-04 19:31 | 26.92670 | 33.93356 | 4978 ft | 236 kts | 251° |
| 2026-05-04 19:31 | 26.92282 | 33.91601 | 4773 ft | 228 kts | 272° |
| 2026-05-04 19:32 | 26.92490 | 33.89864 | 4661 ft | 224 kts | 292° |
| 2026-05-04 19:32 | 26.93189 | 33.88384 | 4529 ft | 210 kts | 310° |
| 2026-05-04 19:32 | 26.94242 | 33.87302 | 4318 ft | 204 kts | 327° |
| 2026-05-04 19:32 | 26.95528 | 33.86678 | 4100 ft | 203 kts | 344° |
| 2026-05-04 19:33 | 26.96893 | 33.86281 | 3849 ft | 201 kts | 343° |
| 2026-05-04 19:33 | 26.98211 | 33.85894 | 3591 ft | 188 kts | 343° |
| 2026-05-04 19:33 | 26.99435 | 33.85533 | 3354 ft | 175 kts | 343° |
| 2026-05-04 19:33 | 27.00574 | 33.85197 | 3127 ft | 163 kts | 343° |
| 2026-05-04 19:34 | 27.01620 | 33.84889 | 2921 ft | 151 kts | 343° |
| 2026-05-04 19:34 | 27.02593 | 33.84602 | 2738 ft | 140 kts | 343° |
| 2026-05-04 19:34 | 27.03518 | 33.84329 | 2556 ft | 136 kts | 342° |
| 2026-05-04 19:34 | 27.04423 | 33.84062 | 2380 ft | 133 kts | 342° |
| 2026-05-04 19:35 | 27.05314 | 33.83799 | 2201 ft | 132 kts | 342° |
| 2026-05-04 19:35 | 27.06205 | 33.83536 | 2032 ft | 133 kts | 342° |
| 2026-05-04 19:35 | 27.07103 | 33.83271 | 1859 ft | 133 kts | 342° |
| 2026-05-04 19:35 | 27.08002 | 33.83006 | 1678 ft | 134 kts | 343° |
| 2026-05-04 19:36 | 27.08899 | 33.82742 | 1498 ft | 133 kts | 342° |
| 2026-05-04 19:36 | 27.09807 | 33.82474 | 1333 ft | 136 kts | 340° |
| 2026-05-04 19:36 | 27.10724 | 33.82203 | 1165 ft | 136 kts | 342° |
| 2026-05-04 19:36 | 27.11582 | 33.81950 | 1001 ft | 135 kts | 342° |
| 2026-05-04 19:37 | 27.12494 | 33.81681 | 823 ft | 136 kts | 343° |
| 2026-05-04 19:37 | 27.13401 | 33.81414 | 649 ft | 135 kts | 342° |
| 2026-05-04 19:37 | 27.14311 | 33.81145 | 453 ft | 135 kts | 342° |
| 2026-05-04 19:37 | 27.15187 | 33.80886 | 269 ft | 135 kts | 341° |
| 2026-05-04 19:38 | 27.16103 | 33.80617 | 66 ft | 136 kts | 341° |
| 2026-05-04 19:38 | 27.16931 | 33.80356 | 45 ft | 105 kts | 345° |
| 2026-05-04 19:38 | 27.17490 | 33.80200 | 54 ft | 60 kts | 347° |
| 2026-05-04 19:38 | 27.17727 | 33.80134 | 54 ft | 10 kts | 346° |
| 2026-05-04 19:39 | 27.17740 | 33.80131 | 56 ft | 1 kts | 346° |
| 2026-05-04 19:39 | 27.17750 | 33.80128 | 51 ft | 2 kts | 346° |
| 2026-05-04 19:39 | 27.17762 | 33.80124 | 54 ft | 2 kts | 346° |
| 2026-05-04 19:39 | 27.17773 | 33.80121 | 52 ft | 2 kts | 346° |
| 2026-05-04 19:40 | 27.17787 | 33.80117 | 53 ft | 2 kts | 346° |
| 2026-05-04 19:40 | 27.17802 | 33.80113 | 53 ft | 2 kts | 346° |
| 2026-05-04 19:40 | 27.17811 | 33.80111 | 52 ft | 0 kts | 346° |
| 2026-05-04 19:40 | 27.17813 | 33.80110 | 52 ft | 0 kts | 346° |
| 2026-05-04 19:41 | 27.17815 | 33.80109 | 53 ft | 1 kts | 345° |
| 2026-05-04 19:41 | 27.17822 | 33.80107 | 55 ft | 2 kts | 345° |
| 2026-05-04 19:41 | 27.17838 | 33.80103 | 52 ft | 4 kts | 345° |
| 2026-05-04 19:41 | 27.17882 | 33.80090 | 55 ft | 8 kts | 345° |
| 2026-05-04 19:42 | 27.17941 | 33.80073 | 54 ft | 10 kts | 346° |
| 2026-05-04 19:42 | 27.18018 | 33.80051 | 52 ft | 13 kts | 346° |
| 2026-05-04 19:42 | 27.18108 | 33.80025 | 47 ft | 14 kts | 346° |
| 2026-05-04 19:42 | 27.18197 | 33.79997 | 51 ft | 13 kts | 343° |
| 2026-05-04 19:43 | 27.18283 | 33.79968 | 50 ft | 13 kts | 345° |
| 2026-05-04 19:43 | 27.18372 | 33.79944 | 50 ft | 13 kts | 346° |
| 2026-05-04 19:43 | 27.18439 | 33.79949 | 51 ft | 8 kts | 40° |
| 2026-05-04 19:43 | 27.18460 | 33.79999 | 48 ft | 4 kts | 72° |
| 2026-05-04 19:44 | 27.18461 | 33.80004 | 49 ft | 0 kts | 72° |
| 2026-05-04 19:46 | 27.18465 | 33.80017 | 50 ft | 5 kts | 72° |
| 2026-05-04 19:46 | 27.18469 | 33.80058 | 49 ft | 5 kts | 99° |
| 2026-05-04 19:47 | 27.18451 | 33.80090 | 50 ft | 4 kts | 141° |
| 2026-05-04 19:47 | 27.18423 | 33.80106 | 50 ft | 5 kts | 155° |
| 2026-05-04 19:47 | 27.18390 | 33.80117 | 51 ft | 5 kts | 165° |
| 2026-05-04 19:47 | 27.18354 | 33.80128 | 52 ft | 5 kts | 166° |
| 2026-05-04 19:48 | 27.18315 | 33.80138 | 52 ft | 7 kts | 167° |
| 2026-05-04 19:48 | 27.18266 | 33.80151 | 51 ft | 8 kts | 167° |
| 2026-05-04 19:48 | 27.18213 | 33.80166 | 51 ft | 9 kts | 164° |
| 2026-05-04 19:48 | 27.18199 | 33.80172 | 53 ft | 1 kts | 153° |
| 2026-05-04 19:49 | 27.18192 | 33.80177 | 53 ft | 2 kts | 152° |
| 2026-05-04 19:49 | 27.18180 | 33.80185 | 53 ft | 2 kts | 148° |
| 2026-05-04 19:49 | 27.18170 | 33.80192 | 53 ft | 0 kts | 145° |
| 2026-05-04 19:49 | 27.18170 | 33.80194 | 53 ft | 1 kts | 123° |
| 2026-05-04 19:50 | 27.18170 | 33.80196 | 53 ft | 0 kts | 109° |
| 2026-05-04 19:52 | 27.18170 | 33.80197 | 53 ft | 1 kts | 108° |
| 2026-05-04 19:52 | 27.18170 | 33.80208 | 54 ft | 0 kts | 89° |
| 2026-05-04 19:52 | 27.18172 | 33.80213 | 54 ft | 2 kts | 76° |
| 2026-05-04 19:52 | 27.18173 | 33.80218 | 55 ft | 0 kts | 77° |
| 2026-05-04 19:53 | 27.18173 | 33.80221 | 55 ft | 0 kts | 77° |
| 2026-05-04 19:53 | 27.18176 | 33.80232 | 53 ft | 2 kts | 77° |
| 2026-05-04 19:53 | 27.18176 | 33.80234 | 53 ft | 0 kts | 77° |
| 2026-05-04 19:54 | 27.18176 | 33.80235 | 53 ft | 2 kts | 77° |
| 2026-05-04 19:54 | 27.18183 | 33.80263 | 52 ft | 7 kts | 75° |
| 2026-05-04 19:55 | 27.18202 | 33.80339 | 56 ft | 11 kts | 74° |
| 2026-05-04 19:55 | 27.18194 | 33.80404 | 51 ft | 4 kts | 124° |
| 2026-05-04 19:55 | 27.18171 | 33.80424 | 54 ft | 4 kts | 153° |
| 2026-05-04 19:55 | 27.18157 | 33.80441 | 56 ft | 2 kts | 123° |
| 2026-05-04 19:56 | 27.18150 | 33.80447 | 56 ft | 2 kts | 145° |
| 2026-05-04 19:56 | 27.18142 | 33.80453 | 56 ft | 1 kts | 147° |
| 2026-05-04 19:56 | 27.18139 | 33.80453 | 56 ft | 1 kts | 160° |
| 2026-05-04 19:56 | 27.18130 | 33.80455 | 57 ft | 2 kts | 169° |
| 2026-05-04 19:57 | 27.18118 | 33.80458 | 53 ft | 2 kts | 169° |
| 2026-05-04 19:57 | 27.18103 | 33.80457 | 56 ft | 3 kts | 179° |
| 2026-05-04 19:57 | 27.18078 | 33.80458 | 51 ft | 4 kts | 179° |
| 2026-05-04 19:57 | 27.18044 | 33.80466 | 54 ft | 5 kts | 167° |
| 2026-05-04 19:58 | 27.18038 | 33.80467 | 55 ft | 2 kts | 167° |
| 2026-05-04 19:58 | 27.18021 | 33.80472 | 54 ft | 3 kts | 167° |
| 2026-05-04 19:58 | 27.17992 | 33.80479 | 54 ft | 5 kts | 167° |
| 2026-05-04 19:58 | 27.17971 | 33.80485 | 57 ft | 0 kts | 167° |
| 2026-05-04 19:59 | 27.17964 | 33.80486 | 51 ft | 2 kts | 167° |
| 2026-05-04 19:59 | 27.17957 | 33.80488 | 54 ft | 0 kts | 167° |
| 2026-05-04 20:00 | 27.17956 | 33.80488 | 54 ft | 1 kts | 167° |
| 2026-05-04 20:00 | 27.17935 | 33.80494 | 56 ft | 5 kts | 167° |
| 2026-05-04 20:00 | 27.17913 | 33.80512 | 52 ft | 1 kts | 116° |
| 2026-05-04 20:01 | 27.17913 | 33.80515 | 51 ft | 1 kts | 97° |
| 2026-05-04 20:01 | 27.17914 | 33.80521 | 55 ft | 1 kts | 85° |
| 2026-05-04 20:01 | 27.17914 | 33.80523 | 56 ft | 0 kts | 85° |
| 2026-05-04 20:01 | 27.17915 | 33.80526 | 56 ft | 1 kts | 79° |
| 2026-05-04 20:02 | 27.17918 | 33.80535 | 57 ft | 2 kts | 74° |
| 2026-05-04 20:02 | 27.17923 | 33.80556 | 50 ft | 3 kts | 73° |
| 2026-05-04 20:02 | 27.17925 | 33.80562 | 50 ft | 1 kts | 73° |
| 2026-05-04 20:02 | 27.17929 | 33.80578 | 58 ft | 2 kts | 74° |
| 2026-05-04 20:03 | 27.17934 | 33.80598 | 51 ft | 2 kts | 75° |
| 2026-05-04 20:03 | 27.17935 | 33.80602 | 52 ft | 0 kts | 75° |
| 2026-05-04 20:10 | 27.17935 | 33.80603 | 58 ft | 0 kts | 75° |